Freeman, Washington
Current Conditions -  °F | °C
As of 9:53 PM on Friday 19 Dec 2014 (Local Time) from KSFF Reporting Station
Overcast Overcast  
Wind Chill: 37°   Ceiling: 1700
Heat Index: 41°   Visibility: 10mi
Dew Point: 35°   Wind: 6mph
Humidity: 79%   Direction: 190°S
Pressure: 30.01"   Gusts: NA
Location:  47.52°N, 117.2°W
Report Text: KSFF 200553Z AUTO 19005KT 10SM OVC017 05/02 A3001 RMK AO2 SLP170 T00500017 10061 20050 50006
Loading
Personal Weather Stations






























Interactive Weather Map New forecast layout! Learn more

10-Day Weather Forecast

Advertisements
Track Severe Weather on mobile